Impacts TAF Board
For situational awareness. Not to be used for flight planning purposes.
IDs:

KLCH - Lake Charles Rgnl, LA, US

Issued at 0520 UTC 22 Oct 2021
Updated at 0630 UTC 22 Oct 2021
Potential Impact None Slight Moderate High
Time<<22/19Z 22/20Z 22/21Z 22/22Z 22/23Z 23/00Z 23/01Z 23/02Z 23/03Z 23/04Z 23/05Z 23/06Z 23/07Z>>
Type PRVL PRVL PRVL PRVL PRVL PRVL PRVL PRVL PRVL PRVL PRVL
VIS >6 >6 >6 >6 >6 >6 >6 >6 >6 >6 >6
CIG -- -- -- -- -- -- -- -- -- -- --
Cover SCT SCT SCT SCT SCT SCT SCT SCT SCT SCT SCT
FltCat VFR VFR VFR VFR VFR VFR VFR VFR VFR VFR VFR
WX -- -- -- -- -- -- -- -- -- -- --
WDir 90 90 90 90 90 VRB VRB VRB VRB VRB VRB
WSpd 6 6 6 6 6 3 3 3 3 3 3
WGst -- -- -- -- -- -- -- -- -- -- --
Raw TAF
KLCH 220520Z 2206/2306 VRB03KT 1SM BR SCT005 SCT100
  TEMPO 2206/2208 1/2SM FG BKN003
  FM220800 VRB03KT 1/2SM FG BKN002
  TEMPO 2211/2214 3SM BR SCT002 BKN030
  FM221400 06006KT P6SM SCT030 BKN150
  FM221800 09006KT P6SM FEW035 SCT250
  FM230000 VRB03KT P6SM SCT250


METAR Board
Radar Display
Forecast Discussion
For situational awareness. Not to be used for flight planning purposes.